Time;durP1;ratioP1;P1;durP2;ratioP2;P2;SDS_P1;SDS_P2;PMS_P1;PMS_P2;Temp;Humidity;BMP_temperature;BMP_pressure;BME280_temperature;BME280_humidity;BME280_pressure;Samples;Min_cycle;Max_cycle;Signal;HPM_P1;HPM_P2
2022/03/18 00:02:23;;;;;;;71.68;49.63;;;;;;;;;;5112300;27;20077;-53
2022/03/18 00:04:50;;;;;;;73.68;52.08;;;;;;;;;;5112814;27;20054;-51
2022/03/18 00:07:16;;;;;;;70.55;51.05;;;;;;;;;;5112912;27;20047;-50
2022/03/18 00:09:43;;;;;;;75.22;52.17;;;;;;;;;;5113438;27;20024;-54
2022/03/18 00:12:09;;;;;;;69.05;49.28;;;;;;;;;;5113692;28;20081;-50
2022/03/18 00:14:39;;;;;;;73.68;50.63;;;;;;;;;;5112946;27;20127;-47
2022/03/18 00:17:05;;;;;;;72.72;51.83;;;;;;;;;;5113413;28;20047;-48
2022/03/18 00:19:31;;;;;;;74.35;50.42;;;;;;;;;;5112906;28;20040;-50
2022/03/18 00:22:01;;;;;;;75.82;53.35;;;;;;;;;;5095071;28;20028;-48
2022/03/18 00:24:27;;;;;;;75.00;53.55;;;;;;;;;;5113308;27;20027;-50
2022/03/18 00:26:53;;;;;;;76.75;52.97;;;;;;;;;;5094881;28;20045;-50
2022/03/18 00:29:19;;;;;;;70.93;51.85;;;;;;;;;;5112800;27;20031;-47
2022/03/18 00:31:45;;;;;;;74.45;52.38;;;;;;;;;;5113082;28;20052;-47
2022/03/18 00:34:11;;;;;;;76.50;54.42;;;;;;;;;;5113284;27;20024;-49
2022/03/18 00:36:38;;;;;;;73.03;52.83;;;;;;;;;;5113194;28;20027;-50
2022/03/18 00:39:05;;;;;;;79.60;54.40;;;;;;;;;;5094851;28;20043;-52
2022/03/18 00:41:31;;;;;;;75.68;53.15;;;;;;;;;;5094753;28;20027;-47
2022/03/18 00:43:57;;;;;;;75.05;53.05;;;;;;;;;;5112061;28;20038;-49
2022/03/18 00:46:24;;;;;;;75.30;53.88;;;;;;;;;;5094716;28;20077;-49
2022/03/18 00:54:21;;;;;;;79.40;55.08;;;;;;;;;;5113349;28;20035;-48
2022/03/18 00:56:47;;;;;;;73.97;55.88;;;;;;;;;;5122853;28;20027;-47
2022/03/18 00:59:13;;;;;;;78.10;54.70;;;;;;;;;;5118055;28;20055;-46
2022/03/18 01:01:39;;;;;;;79.80;56.17;;;;;;;;;;5132517;28;20027;-47
2022/03/18 01:04:05;;;;;;;77.45;55.17;;;;;;;;;;5127449;27;20393;-49
2022/03/18 01:06:35;;;;;;;80.95;56.50;;;;;;;;;;5117125;28;20028;-47
2022/03/18 01:09:02;;;;;;;78.63;55.95;;;;;;;;;;5116172;27;20031;-49
2022/03/18 01:11:28;;;;;;;81.22;54.55;;;;;;;;;;5137123;27;20023;-47
2022/03/18 01:13:54;;;;;;;76.53;54.13;;;;;;;;;;5124373;27;20033;-47
2022/03/18 01:16:19;;;;;;;78.97;54.53;;;;;;;;;;5116779;27;20487;-47
2022/03/18 01:18:46;;;;;;;74.93;54.17;;;;;;;;;;5129496;27;20035;-47
2022/03/18 01:21:12;;;;;;;72.85;53.90;;;;;;;;;;5135657;27;20060;-47
2022/03/18 01:23:38;;;;;;;79.30;55.47;;;;;;;;;;5126190;27;20024;-47
2022/03/18 01:26:04;;;;;;;83.03;57.58;;;;;;;;;;5116573;27;20027;-47
2022/03/18 01:28:30;;;;;;;77.57;55.72;;;;;;;;;;5116737;28;20031;-47
2022/03/18 01:30:57;;;;;;;77.63;57.53;;;;;;;;;;5116783;27;20099;-47
2022/03/18 01:33:23;;;;;;;78.93;55.70;;;;;;;;;;5137045;27;20043;-47
2022/03/18 01:35:49;;;;;;;81.40;56.92;;;;;;;;;;5117945;27;20024;-47
2022/03/18 01:38:15;;;;;;;83.45;56.55;;;;;;;;;;5116163;28;20130;-47
2022/03/18 01:40:41;;;;;;;78.53;54.50;;;;;;;;;;5115898;27;20032;-48
2022/03/18 01:43:09;;;;;;;77.88;54.90;;;;;;;;;;5116507;28;20023;-47
2022/03/18 01:45:35;;;;;;;85.75;57.33;;;;;;;;;;5098414;28;20466;-47
2022/03/18 01:48:01;;;;;;;82.72;55.65;;;;;;;;;;5116320;28;20024;-49
2022/03/18 01:50:27;;;;;;;78.43;56.85;;;;;;;;;;5116001;28;20106;-47
2022/03/18 01:52:53;;;;;;;79.20;55.08;;;;;;;;;;5115596;27;20027;-47
2022/03/18 01:55:23;;;;;;;79.32;56.00;;;;;;;;;;5117531;27;20062;-48
2022/03/18 01:57:49;;;;;;;80.32;55.40;;;;;;;;;;5125320;27;20030;-48
2022/03/18 02:00:15;;;;;;;78.70;55.38;;;;;;;;;;5135229;27;20122;-51
2022/03/18 02:02:41;;;;;;;75.82;56.72;;;;;;;;;;5136452;27;20102;-47
2022/03/18 02:05:09;;;;;;;77.68;56.17;;;;;;;;;;5135061;27;20072;-48
2022/03/18 02:07:35;;;;;;;75.75;57.20;;;;;;;;;;5125244;27;20024;-47
2022/03/18 02:10:01;;;;;;;79.40;56.53;;;;;;;;;;5131848;27;20027;-49
2022/03/18 02:12:27;;;;;;;79.25;55.13;;;;;;;;;;5135399;27;20038;-46
2022/03/18 02:14:53;;;;;;;80.10;56.17;;;;;;;;;;5119001;27;20028;-46
2022/03/18 02:17:19;;;;;;;80.82;57.10;;;;;;;;;;5133421;27;20480;-46
2022/03/18 02:19:46;;;;;;;80.57;55.30;;;;;;;;;;5134111;27;20502;-49
2022/03/18 02:22:14;;;;;;;79.25;56.95;;;;;;;;;;5134810;27;20051;-48
2022/03/18 02:24:41;;;;;;;83.38;57.72;;;;;;;;;;5130748;27;20095;-47
2022/03/18 02:27:07;;;;;;;78.72;54.97;;;;;;;;;;5134154;27;20023;-47
2022/03/18 02:29:33;;;;;;;79.40;56.58;;;;;;;;;;5122050;27;20031;-49
2022/03/18 02:32:00;;;;;;;80.15;57.65;;;;;;;;;;5107738;28;20488;-47
2022/03/18 02:34:27;;;;;;;82.70;57.28;;;;;;;;;;5114725;27;20043;-47
2022/03/18 02:36:53;;;;;;;88.85;60.45;;;;;;;;;;5136055;27;20054;-47
2022/03/18 02:39:19;;;;;;;87.85;59.28;;;;;;;;;;5134407;27;20038;-47
2022/03/18 02:41:45;;;;;;;86.55;59.00;;;;;;;;;;5135795;27;20127;-47
2022/03/18 02:44:11;;;;;;;84.45;59.50;;;;;;;;;;5134363;27;20023;-47
2022/03/18 02:46:37;;;;;;;85.03;59.15;;;;;;;;;;5135556;27;20034;-49
2022/03/18 02:49:04;;;;;;;83.07;58.45;;;;;;;;;;5134167;27;20098;-46
2022/03/18 02:51:30;;;;;;;80.60;57.67;;;;;;;;;;5135633;27;20027;-49
2022/03/18 02:53:56;;;;;;;85.78;58.75;;;;;;;;;;5129418;27;20443;-47
2022/03/18 02:56:23;;;;;;;82.82;58.28;;;;;;;;;;5135701;27;20027;-47
2022/03/18 02:58:49;;;;;;;84.60;58.85;;;;;;;;;;5133808;27;20426;-46
2022/03/18 03:01:16;;;;;;;87.40;57.92;;;;;;;;;;5115026;28;20102;-46
2022/03/18 03:03:42;;;;;;;85.75;58.53;;;;;;;;;;5130843;27;20023;-47
2022/03/18 03:08:52;;;;;;;87.82;60.35;;;;;;;;;;5133844;27;20076;-46
2022/03/18 03:11:21;;;;;;;83.88;57.65;;;;;;;;;;5135231;27;20050;-46
2022/03/18 03:13:47;;;;;;;83.88;59.80;;;;;;;;;;5133483;27;20466;-46
2022/03/18 03:16:13;;;;;;;87.80;60.40;;;;;;;;;;5135004;27;20034;-48
2022/03/18 03:18:39;;;;;;;87.30;60.25;;;;;;;;;;5133516;27;20097;-47
2022/03/18 03:21:05;;;;;;;82.68;59.22;;;;;;;;;;5119859;27;20035;-47
2022/03/18 03:23:31;;;;;;;87.82;59.92;;;;;;;;;;5130324;27;20034;-47
2022/03/18 03:25:57;;;;;;;90.38;59.60;;;;;;;;;;5134907;27;20031;-48
2022/03/18 03:28:23;;;;;;;88.97;58.85;;;;;;;;;;5132962;27;20105;-48
2022/03/18 03:30:50;;;;;;;89.97;61.35;;;;;;;;;;5114393;28;20035;-49
2022/03/18 03:33:16;;;;;;;85.15;58.63;;;;;;;;;;5114113;28;20023;-47
2022/03/18 03:35:42;;;;;;;88.57;60.45;;;;;;;;;;5133796;27;20070;-47
2022/03/18 03:38:10;;;;;;;86.35;60.10;;;;;;;;;;5134338;27;20093;-47
2022/03/18 03:40:37;;;;;;;88.55;61.33;;;;;;;;;;5132426;27;20034;-47
2022/03/18 03:43:03;;;;;;;82.38;58.72;;;;;;;;;;5134542;27;20046;-51
2022/03/18 03:45:29;;;;;;;88.05;60.58;;;;;;;;;;5133183;27;20038;-49
2022/03/18 03:47:55;;;;;;;88.80;60.72;;;;;;;;;;5115713;27;20026;-46
2022/03/18 03:50:21;;;;;;;85.65;58.80;;;;;;;;;;5133294;27;20027;-50
2022/03/18 03:52:47;;;;;;;82.40;56.55;;;;;;;;;;5134408;27;20033;-48
2022/03/18 03:55:14;;;;;;;90.03;59.05;;;;;;;;;;5133173;27;20083;-48
2022/03/18 03:57:40;;;;;;;83.30;59.65;;;;;;;;;;5134128;27;20478;-47
2022/03/18 04:00:13;;;;;;;85.35;57.83;;;;;;;;;;5120065;27;20067;-47
2022/03/18 04:02:39;;;;;;;82.47;58.13;;;;;;;;;;5113646;28;20107;-47
2022/03/18 04:05:09;;;;;;;87.18;59.70;;;;;;;;;;5126245;27;20070;-48
2022/03/18 04:07:36;;;;;;;88.25;58.63;;;;;;;;;;5122376;27;20083;-48
2022/03/18 04:10:02;;;;;;;84.93;58.88;;;;;;;;;;5125290;27;20107;-46
2022/03/18 04:12:29;;;;;;;80.00;55.97;;;;;;;;;;5134345;27;20023;-47
2022/03/18 04:14:55;;;;;;;84.78;59.05;;;;;;;;;;5132605;27;20365;-46
2022/03/18 04:17:22;;;;;;;87.30;58.85;;;;;;;;;;5133910;27;20023;-48
2022/03/18 04:19:48;;;;;;;96.35;62.92;;;;;;;;;;5132544;27;20031;-49
2022/03/18 04:22:14;;;;;;;88.00;62.75;;;;;;;;;;5133794;27;20027;-46
2022/03/18 04:24:40;;;;;;;90.68;60.08;;;;;;;;;;5132981;27;20372;-46
2022/03/18 04:27:07;;;;;;;90.47;61.10;;;;;;;;;;5133433;27;20030;-48
2022/03/18 04:29:33;;;;;;;90.05;61.17;;;;;;;;;;5132394;27;20029;-47
2022/03/18 04:31:59;;;;;;;88.22;59.55;;;;;;;;;;5134484;27;20098;-47
2022/03/18 04:34:25;;;;;;;91.68;62.63;;;;;;;;;;5132039;27;20499;-46
2022/03/18 04:36:51;;;;;;;88.70;60.75;;;;;;;;;;5115271;27;20030;-47
2022/03/18 04:39:17;;;;;;;88.53;60.40;;;;;;;;;;5130582;27;20031;-47
2022/03/18 04:41:43;;;;;;;88.65;59.10;;;;;;;;;;5132417;27;20477;-47
2022/03/18 04:44:09;;;;;;;80.95;54.65;;;;;;;;;;5132157;27;20023;-46
2022/03/18 04:46:35;;;;;;;81.72;54.58;;;;;;;;;;5133645;28;20094;-49
2022/03/18 04:49:01;;;;;;;78.07;53.05;;;;;;;;;;5127236;28;20089;-47
2022/03/18 04:51:27;;;;;;;71.10;48.38;;;;;;;;;;5133794;28;20392;-47
2022/03/18 04:53:53;;;;;;;74.85;49.47;;;;;;;;;;5131781;28;20384;-48
2022/03/18 04:59:04;;;;;;;68.68;44.90;;;;;;;;;;5131862;28;20081;-47
2022/03/18 05:01:31;;;;;;;63.67;43.08;;;;;;;;;;5133415;28;20144;-47
2022/03/18 05:03:57;;;;;;;60.97;43.55;;;;;;;;;;5132114;28;20015;-48
2022/03/18 05:06:24;;;;;;;59.58;41.50;;;;;;;;;;5113949;28;20476;-46
2022/03/18 05:08:50;;;;;;;58.30;43.03;;;;;;;;;;5133361;28;20023;-46
2022/03/18 05:11:16;;;;;;;64.97;42.65;;;;;;;;;;5130087;28;20028;-47
2022/03/18 05:13:42;;;;;;;54.85;38.67;;;;;;;;;;5133202;28;20417;-46
2022/03/18 05:16:08;;;;;;;58.08;38.50;;;;;;;;;;5131973;28;20027;-47
2022/03/18 05:18:34;;;;;;;55.22;39.42;;;;;;;;;;5133160;28;20038;-49
2022/03/18 05:21:00;;;;;;;55.58;38.83;;;;;;;;;;5131923;28;20034;-47
2022/03/18 05:23:26;;;;;;;54.90;38.45;;;;;;;;;;5133189;28;20360;-50
2022/03/18 05:25:52;;;;;;;53.58;37.10;;;;;;;;;;5131915;28;20024;-48
2022/03/18 05:28:18;;;;;;;52.05;37.42;;;;;;;;;;5133020;28;20016;-47
2022/03/18 05:30:44;;;;;;;54.22;36.15;;;;;;;;;;5131845;28;20033;-47
2022/03/18 05:33:10;;;;;;;49.38;33.88;;;;;;;;;;5132583;28;20012;-48
2022/03/18 05:35:36;;;;;;;47.55;34.40;;;;;;;;;;5127598;28;20534;-46
2022/03/18 05:38:02;;;;;;;48.95;32.33;;;;;;;;;;5132986;28;20019;-46
2022/03/18 05:40:28;;;;;;;50.22;33.58;;;;;;;;;;5129449;28;20039;-46
2022/03/18 05:42:54;;;;;;;42.92;30.85;;;;;;;;;;5132669;28;20027;-49
2022/03/18 05:45:22;;;;;;;43.58;31.02;;;;;;;;;;5132582;28;20464;-47
2022/03/18 05:47:49;;;;;;;40.75;30.55;;;;;;;;;;5131341;28;20024;-48
2022/03/18 05:50:16;;;;;;;37.47;27.52;;;;;;;;;;5133456;27;20027;-48
2022/03/18 05:52:46;;;;;;;40.03;29.25;;;;;;;;;;5099658;28;20036;-49
2022/03/18 05:55:12;;;;;;;44.08;30.40;;;;;;;;;;5119085;27;20029;-51
2022/03/18 05:57:39;;;;;;;43.10;28.52;;;;;;;;;;5132407;27;20110;-49
2022/03/18 06:00:05;;;;;;;41.50;28.17;;;;;;;;;;5136446;27;20045;-48
2022/03/18 06:02:31;;;;;;;42.80;28.38;;;;;;;;;;5122480;27;20057;-53
2022/03/18 06:04:57;;;;;;;38.75;27.52;;;;;;;;;;5134715;27;20031;-52
2022/03/18 06:07:23;;;;;;;38.65;26.40;;;;;;;;;;5122289;27;20049;-48
2022/03/18 06:12:34;;;;;;;36.10;24.45;;;;;;;;;;5115543;28;20054;-48
2022/03/18 06:15:00;;;;;;;35.95;24.33;;;;;;;;;;5110649;27;20054;-47
2022/03/18 06:17:26;;;;;;;32.70;23.40;;;;;;;;;;5127110;27;20047;-47
2022/03/18 06:19:52;;;;;;;36.58;24.15;;;;;;;;;;5114115;27;20028;-47
2022/03/18 06:22:18;;;;;;;34.38;24.13;;;;;;;;;;5134086;27;20027;-47
2022/03/18 06:24:44;;;;;;;31.95;23.45;;;;;;;;;;5134017;27;20031;-47
2022/03/18 06:27:11;;;;;;;31.35;22.95;;;;;;;;;;5115267;28;20024;-46
2022/03/18 06:29:37;;;;;;;30.00;21.35;;;;;;;;;;5114929;28;20023;-48
2022/03/18 06:32:03;;;;;;;32.35;22.17;;;;;;;;;;5115195;28;20020;-49
2022/03/18 06:34:29;;;;;;;30.95;21.58;;;;;;;;;;5114774;27;20052;-47
2022/03/18 06:36:57;;;;;;;31.77;23.20;;;;;;;;;;5115137;28;20028;-47
2022/03/18 06:39:24;;;;;;;31.95;23.13;;;;;;;;;;5115326;28;20059;-47
2022/03/18 06:41:51;;;;;;;33.33;24.48;;;;;;;;;;5114714;27;20057;-49
2022/03/18 06:44:18;;;;;;;32.88;23.58;;;;;;;;;;5132148;27;20072;-47
2022/03/18 06:46:45;;;;;;;32.60;21.00;;;;;;;;;;5112738;28;20028;-46
2022/03/18 06:49:12;;;;;;;30.20;21.23;;;;;;;;;;5096580;28;20402;-48
2022/03/18 06:51:38;;;;;;;25.50;20.13;;;;;;;;;;5129878;27;20472;-50
2022/03/18 06:54:04;;;;;;;29.10;21.70;;;;;;;;;;5100261;28;20110;-47
2022/03/18 06:56:30;;;;;;;31.83;22.00;;;;;;;;;;5110818;27;20023;-49
2022/03/18 06:58:57;;;;;;;34.35;25.90;;;;;;;;;;5133711;27;20027;-47
2022/03/18 07:01:23;;;;;;;30.33;24.55;;;;;;;;;;5130394;27;20026;-47
2022/03/18 07:03:49;;;;;;;29.55;22.85;;;;;;;;;;5134200;27;20593;-49
2022/03/18 07:06:15;;;;;;;29.70;20.70;;;;;;;;;;5134204;27;20027;-48
2022/03/18 07:08:41;;;;;;;30.63;22.13;;;;;;;;;;5135330;27;20069;-47
2022/03/18 07:11:09;;;;;;;31.08;21.95;;;;;;;;;;5133870;27;20019;-49
2022/03/18 07:13:35;;;;;;;30.65;21.17;;;;;;;;;;5135543;27;20054;-47
2022/03/18 07:18:46;;;;;;;29.00;20.75;;;;;;;;;;5135346;27;20108;-48
2022/03/18 07:21:12;;;;;;;37.78;22.48;;;;;;;;;;5122772;27;20040;-46
2022/03/18 07:23:38;;;;;;;37.33;23.55;;;;;;;;;;5116743;27;20586;-50
2022/03/18 07:26:04;;;;;;;27.80;21.08;;;;;;;;;;5133797;27;20135;-47
2022/03/18 07:28:30;;;;;;;29.30;21.60;;;;;;;;;;5114399;27;20077;-48
2022/03/18 07:30:56;;;;;;;29.92;21.83;;;;;;;;;;5106068;28;20439;-47
2022/03/18 07:33:22;;;;;;;30.92;23.40;;;;;;;;;;5113938;28;20032;-48
2022/03/18 07:35:48;;;;;;;28.35;20.95;;;;;;;;;;5121145;27;20066;-47
2022/03/18 07:38:14;;;;;;;31.08;21.75;;;;;;;;;;5134482;27;20058;-49
2022/03/18 07:40:40;;;;;;;27.85;21.20;;;;;;;;;;5127649;27;20512;-47
2022/03/18 07:43:08;;;;;;;27.42;21.10;;;;;;;;;;5114141;28;20020;-53
2022/03/18 07:45:36;;;;;;;33.05;21.75;;;;;;;;;;5095771;28;20035;-53
2022/03/18 07:48:03;;;;;;;31.20;21.88;;;;;;;;;;5114281;28;20023;-47
2022/03/18 07:50:30;;;;;;;28.88;22.60;;;;;;;;;;5117894;27;20031;-47
2022/03/18 07:52:57;;;;;;;30.60;23.02;;;;;;;;;;5134365;27;20019;-47
2022/03/18 07:55:25;;;;;;;30.55;21.52;;;;;;;;;;5132055;27;20031;-50
2022/03/18 07:57:51;;;;;;;27.75;21.00;;;;;;;;;;5133276;27;20125;-49
2022/03/18 08:00:18;;;;;;;32.30;22.60;;;;;;;;;;5133076;27;20385;-45
2022/03/18 08:02:45;;;;;;;35.38;22.20;;;;;;;;;;5134257;27;20429;-46
2022/03/18 08:05:12;;;;;;;27.48;21.17;;;;;;;;;;5132902;27;20418;-46
2022/03/18 08:07:39;;;;;;;22.60;19.92;;;;;;;;;;5120078;27;20028;-50
2022/03/18 08:10:06;;;;;;;25.17;20.80;;;;;;;;;;5113278;27;20516;-46
2022/03/18 08:12:32;;;;;;;29.70;20.17;;;;;;;;;;5113204;28;20062;-46
2022/03/18 08:14:59;;;;;;;28.42;20.40;;;;;;;;;;5113587;28;20024;-49
2022/03/18 08:17:25;;;;;;;31.33;20.85;;;;;;;;;;5131887;27;20033;-46
2022/03/18 08:19:51;;;;;;;28.27;21.50;;;;;;;;;;5133317;27;20042;-52
2022/03/18 08:22:20;;;;;;;29.08;20.58;;;;;;;;;;5132101;27;20464;-45
2022/03/18 08:24:46;;;;;;;25.45;19.63;;;;;;;;;;5132211;27;20106;-47
2022/03/18 08:27:12;;;;;;;28.30;19.05;;;;;;;;;;5132330;27;20052;-50
2022/03/18 08:29:38;;;;;;;26.80;20.42;;;;;;;;;;5132576;27;20499;-49
2022/03/18 08:32:07;;;;;;;22.50;18.35;;;;;;;;;;5132317;27;20027;-48
2022/03/18 08:34:34;;;;;;;31.88;20.40;;;;;;;;;;5133211;27;20133;-46
2022/03/18 08:37:00;;;;;;;27.45;19.15;;;;;;;;;;5132344;27;20023;-49
2022/03/18 08:39:26;;;;;;;26.42;20.23;;;;;;;;;;5133402;27;20415;-47
2022/03/18 08:41:52;;;;;;;24.25;18.75;;;;;;;;;;5132346;27;20046;-49
2022/03/18 08:44:19;;;;;;;28.58;19.73;;;;;;;;;;5133353;27;20027;-47
2022/03/18 08:46:49;;;;;;;24.25;19.50;;;;;;;;;;5132059;27;20074;-47
2022/03/18 08:49:15;;;;;;;34.45;20.55;;;;;;;;;;5115167;28;20103;-51
2022/03/18 08:51:41;;;;;;;25.35;19.30;;;;;;;;;;5130497;27;20068;-49
2022/03/18 08:54:07;;;;;;;27.95;20.38;;;;;;;;;;5130322;28;20037;-48
2022/03/18 08:56:33;;;;;;;25.33;19.58;;;;;;;;;;5122763;28;20028;-48
2022/03/18 08:59:03;;;;;;;25.20;19.92;;;;;;;;;;5133297;28;20087;-46
2022/03/18 09:01:29;;;;;;;25.45;19.45;;;;;;;;;;5131781;28;20026;-47
2022/03/18 09:03:55;;;;;;;25.88;19.00;;;;;;;;;;5133585;28;20027;-47
2022/03/18 09:06:21;;;;;;;24.67;18.38;;;;;;;;;;5132169;28;20486;-48
2022/03/18 09:08:47;;;;;;;25.35;18.92;;;;;;;;;;5133594;28;20023;-48
2022/03/18 09:11:13;;;;;;;22.55;18.45;;;;;;;;;;5132217;28;20027;-48
2022/03/18 09:13:39;;;;;;;25.58;20.75;;;;;;;;;;5133476;28;20027;-49
2022/03/18 09:16:06;;;;;;;28.27;20.48;;;;;;;;;;5108677;28;20588;-47
2022/03/18 09:18:32;;;;;;;24.85;19.95;;;;;;;;;;5128132;28;20381;-47
2022/03/18 09:20:58;;;;;;;30.20;19.80;;;;;;;;;;5131110;28;20048;-49
2022/03/18 09:23:24;;;;;;;25.50;18.67;;;;;;;;;;5130600;28;20072;-47
2022/03/18 09:25:51;;;;;;;26.85;18.45;;;;;;;;;;5096284;28;20024;-47
2022/03/18 09:28:17;;;;;;;28.55;19.13;;;;;;;;;;5098185;28;20102;-51
2022/03/18 09:30:43;;;;;;;27.17;19.45;;;;;;;;;;5118234;27;20062;-47
2022/03/18 09:33:10;;;;;;;25.35;19.58;;;;;;;;;;5136421;27;20062;-47
2022/03/18 09:35:36;;;;;;;23.60;19.02;;;;;;;;;;5117374;27;20035;-50
2022/03/18 09:38:03;;;;;;;22.50;19.90;;;;;;;;;;5137054;27;20468;-48
2022/03/18 09:40:29;;;;;;;27.42;18.90;;;;;;;;;;5136380;27;20035;-50
2022/03/18 09:42:55;;;;;;;21.83;18.80;;;;;;;;;;5136258;27;20023;-50
2022/03/18 09:45:21;;;;;;;27.58;18.38;;;;;;;;;;5137020;27;20056;-50
2022/03/18 09:47:48;;;;;;;24.02;19.70;;;;;;;;;;5134524;27;20580;-46
2022/03/18 09:50:14;;;;;;;29.05;25.55;;;;;;;;;;5136415;27;20016;-49
2022/03/18 09:52:40;;;;;;;25.40;20.77;;;;;;;;;;5134743;27;20038;-51
2022/03/18 09:55:06;;;;;;;26.70;20.80;;;;;;;;;;5136233;27;20098;-46
2022/03/18 09:57:32;;;;;;;23.00;18.67;;;;;;;;;;5132411;27;20054;-53
2022/03/18 09:59:59;;;;;;;27.20;22.30;;;;;;;;;;5117366;27;20035;-48
2022/03/18 10:02:29;;;;;;;27.00;20.92;;;;;;;;;;5106421;27;20038;-46
2022/03/18 10:04:57;;;;;;;30.98;21.40;;;;;;;;;;5135581;27;20145;-47
2022/03/18 10:07:23;;;;;;;24.80;20.05;;;;;;;;;;5129123;27;20380;-46
2022/03/18 10:10:00;;;;;;;25.70;20.25;;;;;;;;;;5134808;27;20031;-52
2022/03/18 10:12:30;;;;;;;30.08;20.95;;;;;;;;;;5131512;27;20023;-46
2022/03/18 10:15:30;;;;;;;25.83;21.33;;;;;;;;;;5136254;27;20033;-46
2022/03/18 10:17:57;;;;;;;22.80;19.55;;;;;;;;;;5116709;27;20043;-47
2022/03/18 10:20:40;;;;;;;21.40;17.77;;;;;;;;;;5132266;27;20114;-49
2022/03/18 10:23:21;;;;;;;27.25;19.05;;;;;;;;;;5135189;27;20133;-48
2022/03/18 10:25:51;;;;;;;23.08;18.38;;;;;;;;;;5135275;27;20016;-47
2022/03/18 10:28:32;;;;;;;22.95;18.35;;;;;;;;;;5115363;28;20024;-49
2022/03/18 10:31:16;;;;;;;24.20;18.90;;;;;;;;;;5116428;27;20529;-46
2022/03/18 10:37:04;;;;;;;21.70;17.75;;;;;;;;;;5135940;27;20039;-48
2022/03/18 10:39:26;;;;;;;25.33;17.27;;;;;;;;;;5134853;27;20168;-49
2022/03/18 10:41:52;;;;;;;24.52;18.63;;;;;;;;;;5134940;27;20019;-50
2022/03/18 10:44:18;;;;;;;26.40;18.73;;;;;;;;;;5117264;27;20035;-49
2022/03/18 10:46:44;;;;;;;24.60;18.85;;;;;;;;;;5134336;27;20577;-49
2022/03/18 10:49:11;;;;;;;22.40;18.67;;;;;;;;;;5115874;27;20038;-47
2022/03/18 10:51:38;;;;;;;23.60;19.35;;;;;;;;;;5134348;27;20082;-50
2022/03/18 10:54:04;;;;;;;22.70;18.75;;;;;;;;;;5135466;27;20023;-47
2022/03/18 10:56:36;;;;;;;24.08;18.20;;;;;;;;;;5134446;27;20036;-47
2022/03/18 10:59:04;;;;;;;23.80;18.00;;;;;;;;;;5135414;27;20089;-45
2022/03/18 11:01:30;;;;;;;22.30;18.88;;;;;;;;;;5133845;27;20020;-46
2022/03/18 11:03:56;;;;;;;25.25;19.15;;;;;;;;;;5134162;27;20401;-48
2022/03/18 11:06:22;;;;;;;19.98;17.45;;;;;;;;;;5129981;27;20036;-47
2022/03/18 11:08:49;;;;;;;28.08;21.67;;;;;;;;;;5128346;27;20452;-46
2022/03/18 11:11:18;;;;;;;33.47;25.50;;;;;;;;;;5120286;27;20038;-47
2022/03/18 11:13:48;;;;;;;29.70;22.95;;;;;;;;;;5125314;27;20027;-48
2022/03/18 11:16:17;;;;;;;24.50;20.17;;;;;;;;;;5113559;27;20051;-47
2022/03/18 11:18:44;;;;;;;25.85;20.65;;;;;;;;;;5128983;27;20043;-47
2022/03/18 11:21:10;;;;;;;25.75;20.48;;;;;;;;;;5115429;27;20023;-49
2022/03/18 11:23:38;;;;;;;25.27;18.95;;;;;;;;;;5134652;27;20109;-49
2022/03/18 11:26:04;;;;;;;23.77;18.48;;;;;;;;;;5135109;27;20027;-48
2022/03/18 11:28:30;;;;;;;22.45;18.75;;;;;;;;;;5132773;27;20103;-47
2022/03/18 11:31:04;;;;;;;22.80;18.92;;;;;;;;;;5116339;27;20081;-48
2022/03/18 11:33:30;;;;;;;25.83;19.90;;;;;;;;;;5131685;27;20039;-49
2022/03/18 11:36:18;;;;;;;22.33;18.77;;;;;;;;;;5134962;27;20031;-48
2022/03/18 11:38:48;;;;;;;20.75;17.95;;;;;;;;;;5133878;27;20110;-47
2022/03/18 11:41:14;;;;;;;20.95;17.42;;;;;;;;;;5134642;27;20035;-47
2022/03/18 11:43:40;;;;;;;23.83;18.05;;;;;;;;;;5133270;27;20114;-51
2022/03/18 11:46:20;;;;;;;27.67;22.83;;;;;;;;;;5133416;27;20047;-49
2022/03/18 11:48:50;;;;;;;24.00;19.65;;;;;;;;;;5133167;27;20027;-47
2022/03/18 11:51:36;;;;;;;21.60;18.33;;;;;;;;;;5115938;27;20068;-51
2022/03/18 11:54:16;;;;;;;22.73;19.40;;;;;;;;;;5129725;27;20027;-52
2022/03/18 11:56:57;;;;;;;25.65;19.55;;;;;;;;;;5134405;27;20376;-50
2022/03/18 11:59:29;;;;;;;22.23;18.58;;;;;;;;;;5113233;28;20050;-51
2022/03/18 12:02:02;;;;;;;30.00;25.92;;;;;;;;;;5117435;27;20035;-48
2022/03/18 12:04:41;;;;;;;22.77;20.13;;;;;;;;;;5113343;28;20496;-51
2022/03/18 12:07:38;;;;;;;22.45;19.77;;;;;;;;;;5112673;28;20020;-49
2022/03/18 12:19:15;;;;;;;24.20;20.30;;;;;;;;;;5129213;27;20050;-46
2022/03/18 12:21:43;;;;;;;23.98;20.27;;;;;;;;;;5132203;27;20023;-46
2022/03/18 12:24:09;;;;;;;25.20;20.55;;;;;;;;;;5100988;28;20046;-46
2022/03/18 12:26:36;;;;;;;24.67;19.65;;;;;;;;;;5113044;28;20030;-46
2022/03/18 12:29:03;;;;;;;25.77;20.17;;;;;;;;;;5113032;28;20019;-46
2022/03/18 12:31:29;;;;;;;24.73;20.45;;;;;;;;;;5113287;28;20056;-46
2022/03/18 12:33:56;;;;;;;29.67;21.65;;;;;;;;;;5123621;27;20054;-46
2022/03/18 12:36:27;;;;;;;28.42;20.48;;;;;;;;;;5128634;27;20451;-46
2022/03/18 12:39:13;;;;;;;23.77;21.20;;;;;;;;;;5128520;27;20041;-46
2022/03/18 12:41:40;;;;;;;25.80;20.77;;;;;;;;;;5132296;27;20031;-49
2022/03/18 12:44:06;;;;;;;30.02;22.63;;;;;;;;;;5131990;27;20027;-50
2022/03/18 12:46:33;;;;;;;29.52;21.63;;;;;;;;;;5115169;28;20031;-46
2022/03/18 12:48:59;;;;;;;26.90;21.35;;;;;;;;;;5131765;27;20042;-49
2022/03/18 12:51:25;;;;;;;29.70;21.95;;;;;;;;;;5133440;27;20118;-51
2022/03/18 12:53:52;;;;;;;28.40;21.80;;;;;;;;;;5122753;27;20473;-47
2022/03/18 12:56:22;;;;;;;26.33;22.15;;;;;;;;;;5113159;28;20437;-48
2022/03/18 12:58:48;;;;;;;23.83;21.17;;;;;;;;;;5124996;28;20035;-50
2022/03/18 13:01:16;;;;;;;25.13;22.20;;;;;;;;;;5135683;27;20376;-46
2022/03/18 13:03:49;;;;;;;26.63;22.05;;;;;;;;;;5116573;27;20039;-47
2022/03/18 13:06:22;;;;;;;27.38;21.95;;;;;;;;;;5137699;27;20455;-48
2022/03/18 13:08:54;;;;;;;31.35;22.40;;;;;;;;;;5135844;27;20026;-49
2022/03/18 13:11:20;;;;;;;28.45;22.48;;;;;;;;;;5129643;27;20042;-46
2022/03/18 13:13:47;;;;;;;26.70;21.63;;;;;;;;;;5133935;27;20106;-46
2022/03/18 13:16:14;;;;;;;32.22;22.80;;;;;;;;;;5137186;27;20070;-47
2022/03/18 13:18:48;;;;;;;34.22;27.10;;;;;;;;;;5134576;27;20030;-46
2022/03/18 13:21:14;;;;;;;27.00;22.80;;;;;;;;;;5137237;27;20023;-47
2022/03/18 13:23:42;;;;;;;27.75;22.00;;;;;;;;;;5135841;27;20351;-50
2022/03/18 13:26:12;;;;;;;28.60;20.35;;;;;;;;;;5135231;27;20098;-47
2022/03/18 13:28:38;;;;;;;24.95;22.20;;;;;;;;;;5121653;27;20429;-48
2022/03/18 13:33:52;;;;;;;30.08;22.20;;;;;;;;;;5135803;27;20449;-47
2022/03/18 13:36:30;;;;;;;23.58;21.02;;;;;;;;;;5136165;27;20045;-47
2022/03/18 13:39:01;;;;;;;28.85;21.95;;;;;;;;;;5135519;27;20031;-48
2022/03/18 13:41:42;;;;;;;26.52;22.77;;;;;;;;;;5118481;27;20035;-49
2022/03/18 13:44:08;;;;;;;29.10;22.08;;;;;;;;;;5135868;27;20468;-50
2022/03/18 13:46:34;;;;;;;26.27;22.25;;;;;;;;;;5136928;27;20057;-47
2022/03/18 13:49:10;;;;;;;33.08;24.20;;;;;;;;;;5135355;27;20038;-46
2022/03/18 13:51:38;;;;;;;26.88;22.73;;;;;;;;;;5137121;27;20059;-46
2022/03/18 13:54:11;;;;;;;29.80;23.30;;;;;;;;;;5126286;27;20020;-48
2022/03/18 13:56:39;;;;;;;27.02;21.65;;;;;;;;;;5115842;28;20076;-52
2022/03/18 13:59:12;;;;;;;28.25;22.38;;;;;;;;;;5116409;27;20043;-50
2022/03/18 14:01:39;;;;;;;29.95;23.02;;;;;;;;;;5117167;27;20024;-49
2022/03/18 14:04:05;;;;;;;24.38;20.42;;;;;;;;;;5124339;27;20034;-49
2022/03/18 14:06:31;;;;;;;26.08;21.65;;;;;;;;;;5133218;27;20026;-52
2022/03/18 14:09:12;;;;;;;26.92;21.45;;;;;;;;;;5097408;28;20425;-48
2022/03/18 14:14:26;;;;;;;25.50;21.00;;;;;;;;;;5125141;27;20563;-51
2022/03/18 14:17:11;;;;;;;28.73;19.25;;;;;;;;;;5136146;27;20446;-49
2022/03/18 14:19:37;;;;;;;;;;;;;;;;;;5106029;28;20377;-48
2022/03/18 14:22:03;;;;;;;31.33;19.50;;;;;;;;;;5116241;27;19957;-49
2022/03/18 14:24:29;;;;;;;26.20;18.88;;;;;;;;;;5124243;27;20436;-47
2022/03/18 14:26:55;;;;;;;25.30;19.08;;;;;;;;;;5105505;27;20119;-50
2022/03/18 14:29:31;;;;;;;25.58;19.00;;;;;;;;;;5108890;27;20029;-47
2022/03/18 14:31:57;;;;;;;23.52;19.52;;;;;;;;;;5123681;27;20035;-49
2022/03/18 14:34:23;;;;;;;25.17;18.80;;;;;;;;;;5102856;28;20056;-49
2022/03/18 14:36:49;;;;;;;25.30;18.98;;;;;;;;;;5100864;28;20032;-49
2022/03/18 14:39:15;;;;;;;26.27;18.27;;;;;;;;;;5098357;28;20130;-47
2022/03/18 14:41:41;;;;;;;20.33;17.48;;;;;;;;;;5103291;28;20020;-48
2022/03/18 14:44:08;;;;;;;25.85;19.02;;;;;;;;;;5100417;28;20318;-51
2022/03/18 14:46:34;;;;;;;20.73;17.55;;;;;;;;;;5103953;28;20477;-50
2022/03/18 14:49:00;;;;;;;22.95;18.80;;;;;;;;;;5098666;28;20027;-47
2022/03/18 14:51:26;;;;;;;22.33;17.80;;;;;;;;;;5099618;28;20028;-50
2022/03/18 14:53:52;;;;;;;20.05;16.75;;;;;;;;;;5097666;28;20069;-52
2022/03/18 14:56:19;;;;;;;24.13;15.57;;;;;;;;;;5102533;28;20549;-49